createdAt,value
2023-05-05T00:02:09.395Z,6.65
2023-05-05T00:04:36.753Z,6.38
2023-05-05T00:07:04.057Z,6.32
2023-05-05T00:09:31.426Z,6.70
2023-05-05T00:11:58.825Z,6.13
2023-05-05T00:14:26.141Z,6.40
2023-05-05T00:16:53.460Z,6.40
2023-05-05T00:19:20.803Z,6.72
2023-05-05T00:21:48.460Z,7.00
2023-05-05T00:24:15.900Z,6.57
2023-05-05T00:26:43.266Z,6.80
2023-05-05T00:29:11.313Z,6.38
2023-05-05T00:31:38.921Z,6.68
2023-05-05T00:34:06.464Z,6.25
2023-05-05T00:36:33.811Z,7.00
2023-05-05T00:39:01.138Z,6.57
2023-05-05T00:41:28.585Z,6.97
2023-05-05T00:43:55.888Z,7.45
2023-05-05T00:46:27.925Z,7.35
2023-05-05T00:48:55.887Z,6.55
2023-05-05T00:51:23.229Z,6.72
2023-05-05T00:53:50.619Z,6.90
2023-05-05T00:56:19.441Z,7.85
2023-05-05T00:58:46.876Z,6.97
2023-05-05T01:01:14.545Z,7.30
2023-05-05T01:03:42.216Z,6.68
2023-05-05T01:06:47.290Z,7.10
2023-05-05T01:09:34.394Z,7.35
2023-05-05T01:12:08.662Z,6.95
2023-05-05T01:14:40.781Z,7.63
2023-05-05T01:17:21.300Z,6.57
2023-05-05T01:20:00.636Z,7.10
2023-05-05T01:22:33.440Z,7.40
2023-05-05T01:25:12.954Z,8.65
2023-05-05T01:28:04.644Z,7.55
2023-05-05T01:30:56.336Z,7.60
2023-05-05T01:33:26.181Z,8.07
2023-05-05T01:35:57.916Z,7.50
2023-05-05T01:38:27.623Z,6.72
2023-05-05T01:41:16.413Z,7.57
2023-05-05T01:43:45.803Z,7.10
2023-05-05T01:46:13.825Z,7.45
2023-05-05T01:48:42.857Z,7.18
2023-05-05T01:51:10.162Z,7.50
2023-05-05T01:53:37.561Z,7.65
2023-05-05T01:56:05.345Z,7.35
2023-05-05T01:58:32.799Z,7.15
2023-05-05T02:01:00.176Z,7.80
2023-05-05T02:03:27.667Z,7.72
2023-05-05T02:05:55.007Z,7.45
2023-05-05T02:08:22.372Z,7.72
2023-05-05T02:10:51.091Z,7.60
2023-05-05T02:13:18.499Z,7.47
2023-05-05T02:15:45.925Z,7.13
2023-05-05T02:18:13.310Z,7.97
2023-05-05T02:20:40.889Z,8.02
2023-05-05T02:23:08.338Z,7.40
2023-05-05T02:25:42.346Z,8.05
2023-05-05T02:28:21.195Z,8.23
2023-05-05T02:30:56.686Z,7.63
2023-05-05T02:33:24.171Z,8.25
2023-05-05T02:35:53.219Z,8.30
2023-05-05T02:38:26.515Z,8.18
2023-05-05T02:40:55.468Z,7.82
2023-05-05T02:43:23.206Z,9.20
2023-05-05T02:45:51.730Z,7.68
2023-05-05T02:48:20.241Z,8.05
2023-05-05T02:50:48.992Z,8.45
2023-05-05T02:53:26.884Z,8.80
2023-05-05T02:55:57.253Z,8.63
2023-05-05T02:58:31.628Z,7.75
2023-05-05T03:01:09.436Z,8.57
2023-05-05T03:03:44.827Z,7.95
2023-05-05T03:06:16.693Z,7.18
2023-05-05T03:09:04.412Z,7.75
2023-05-05T03:11:45.816Z,7.95
2023-05-05T03:14:14.009Z,8.30
2023-05-05T03:16:42.656Z,7.95
2023-05-05T03:19:11.452Z,7.97
2023-05-05T03:21:40.371Z,8.48
2023-05-05T03:24:20.540Z,8.77
2023-05-05T03:26:59.220Z,7.75
2023-05-05T03:29:32.980Z,7.85
2023-05-05T03:32:01.492Z,8.02
2023-05-05T03:34:30.000Z,8.25
2023-05-05T03:36:58.624Z,8.20
2023-05-05T03:39:26.044Z,8.10
2023-05-05T03:41:53.803Z,8.38
2023-05-05T03:44:22.330Z,8.45
2023-05-05T03:46:49.839Z,8.25
2023-05-05T03:49:18.100Z,8.45
2023-05-05T03:51:47.515Z,8.30
2023-05-05T03:54:15.394Z,8.43
2023-05-05T03:56:42.790Z,9.00
2023-05-05T03:59:11.545Z,7.85
2023-05-05T04:01:39.389Z,8.38
2023-05-05T04:04:06.820Z,8.30
2023-05-05T04:06:34.205Z,8.15
2023-05-05T04:09:01.987Z,8.88
2023-05-05T04:11:29.837Z,8.90
2023-05-05T04:13:58.018Z,8.63
2023-05-05T04:16:27.187Z,8.32
2023-05-05T04:18:55.401Z,8.82
2023-05-05T04:21:22.713Z,8.35
2023-05-05T04:23:50.135Z,8.82
2023-05-05T04:26:17.470Z,8.95
2023-05-05T04:28:45.954Z,8.60
2023-05-05T04:31:14.399Z,9.45
2023-05-05T04:33:43.493Z,8.65
2023-05-05T04:36:11.538Z,8.90
2023-05-05T04:38:38.913Z,9.02
2023-05-05T04:41:07.052Z,8.50
2023-05-05T04:43:35.898Z,8.63
2023-05-05T04:46:03.818Z,8.77
2023-05-05T04:48:34.270Z,8.68
2023-05-05T04:51:05.188Z,9.43
2023-05-05T04:53:32.968Z,8.55
2023-05-05T04:56:01.390Z,8.95
2023-05-05T04:58:28.975Z,8.80
2023-05-05T05:00:56.398Z,8.77
2023-05-05T05:03:23.892Z,8.73
2023-05-05T05:05:52.317Z,9.13
2023-05-05T05:08:20.254Z,9.23
2023-05-05T05:10:47.644Z,9.00
2023-05-05T05:13:15.125Z,9.70
2023-05-05T05:15:42.694Z,9.00
2023-05-05T05:18:10.038Z,9.55
2023-05-05T05:20:38.632Z,8.60
2023-05-05T05:23:06.124Z,8.10
2023-05-05T05:25:37.526Z,8.55
2023-05-05T05:28:09.333Z,8.50
2023-05-05T05:30:42.219Z,7.93
2023-05-05T05:33:11.070Z,8.00
2023-05-05T05:35:39.634Z,7.55
2023-05-05T05:38:07.265Z,6.82
2023-05-05T05:40:34.718Z,7.40
2023-05-05T05:43:03.145Z,6.95
2023-05-05T05:45:31.421Z,6.50
2023-05-05T05:47:58.863Z,7.28
2023-05-05T05:50:28.589Z,7.55
2023-05-05T05:52:57.120Z,6.43
2023-05-05T05:55:25.418Z,6.95
2023-05-05T05:57:53.711Z,6.72
2023-05-05T06:00:21.613Z,6.03
2023-05-05T06:02:56.320Z,6.65
2023-05-05T06:05:27.842Z,6.68
2023-05-05T06:07:55.458Z,6.15
2023-05-05T06:10:27.226Z,5.68
2023-05-05T06:13:00.875Z,5.63
2023-05-05T06:15:28.352Z,5.43
2023-05-05T06:17:56.416Z,5.00
2023-05-05T06:20:23.946Z,5.32
2023-05-05T06:22:51.309Z,5.25
2023-05-05T06:25:19.227Z,5.28
2023-05-05T06:27:46.621Z,5.15
2023-05-05T06:30:14.749Z,5.50
2023-05-05T06:32:42.227Z,4.60
2023-05-05T06:35:09.913Z,5.07
2023-05-05T06:37:37.318Z,4.65
2023-05-05T06:40:05.627Z,4.78
2023-05-05T06:42:33.171Z,5.63
2023-05-05T06:45:01.484Z,5.55
2023-05-05T06:47:28.849Z,4.90
2023-05-05T06:49:56.197Z,5.60
2023-05-05T06:52:23.504Z,5.80
2023-05-05T06:54:50.784Z,4.93
2023-05-05T06:57:18.207Z,5.10
2023-05-05T06:59:45.644Z,4.43
2023-05-05T07:02:12.964Z,5.00
2023-05-05T07:04:41.370Z,4.68
2023-05-05T07:07:08.803Z,5.00
2023-05-05T07:09:36.329Z,5.10
2023-05-05T07:12:03.875Z,5.20
2023-05-05T07:14:31.180Z,5.03
2023-05-05T07:16:58.586Z,5.05
2023-05-05T07:19:25.890Z,4.60
2023-05-05T07:21:53.206Z,4.60
2023-05-05T07:24:20.583Z,4.55
2023-05-05T07:26:47.885Z,4.90
2023-05-05T07:29:15.671Z,4.68
2023-05-05T07:31:43.055Z,5.13
2023-05-05T07:34:10.392Z,5.28
2023-05-05T07:36:37.914Z,4.60
2023-05-05T07:39:05.307Z,4.70
2023-05-05T07:41:33.983Z,4.85
2023-05-05T07:44:01.448Z,4.65
2023-05-05T07:46:28.921Z,4.25
2023-05-05T07:48:56.247Z,4.72
2023-05-05T07:51:23.551Z,5.78
2023-05-05T07:53:51.010Z,4.90
2023-05-05T07:56:19.312Z,4.55
2023-05-05T07:58:47.854Z,4.85
2023-05-05T08:01:15.814Z,4.75
2023-05-05T08:03:43.468Z,4.20
2023-05-05T08:06:10.921Z,4.55
2023-05-05T08:08:38.338Z,4.22
2023-05-05T08:11:06.617Z,4.38
2023-05-05T08:13:34.636Z,4.65
2023-05-05T08:16:02.079Z,4.45
2023-05-05T08:18:29.622Z,4.38
2023-05-05T08:20:56.991Z,4.22
2023-05-05T08:23:24.343Z,4.20
2023-05-05T08:25:52.321Z,4.47
2023-05-05T08:28:19.706Z,4.97
2023-05-05T08:30:47.067Z,4.32
2023-05-05T08:33:14.499Z,4.03
2023-05-05T08:35:42.638Z,3.80
2023-05-05T08:38:11.326Z,4.00
2023-05-05T08:40:39.464Z,3.65
2023-05-05T08:43:06.812Z,3.90
2023-05-05T08:45:34.162Z,3.72
2023-05-05T08:48:02.671Z,3.85
2023-05-05T08:50:30.394Z,3.53
2023-05-05T08:53:11.586Z,3.83
2023-05-05T08:55:54.668Z,4.13
2023-05-05T08:58:26.410Z,3.95
2023-05-05T09:00:55.608Z,4.50
2023-05-05T09:03:23.080Z,4.82
2023-05-05T09:05:51.099Z,4.78
2023-05-05T09:08:18.461Z,4.65
2023-05-05T09:10:45.996Z,4.18
2023-05-05T09:13:13.628Z,4.20
2023-05-05T09:15:42.133Z,4.72
2023-05-05T09:18:09.631Z,4.10
2023-05-05T09:20:37.816Z,3.88
2023-05-05T09:23:12.776Z,3.75
2023-05-05T09:25:40.943Z,4.07
2023-05-05T09:28:12.882Z,3.80
2023-05-05T09:30:42.048Z,4.20
2023-05-05T09:33:09.569Z,6.32
2023-05-05T09:35:50.421Z,4.45
2023-05-05T09:38:18.496Z,6.63
2023-05-05T09:40:47.554Z,10.27
2023-05-05T09:43:15.864Z,5.80
2023-05-05T09:45:43.515Z,14.10
2023-05-05T09:48:30.592Z,4.78
2023-05-05T09:50:58.383Z,3.90
2023-05-05T09:53:26.515Z,3.80
2023-05-05T09:55:57.168Z,3.88
2023-05-05T09:58:26.021Z,3.53
2023-05-05T10:00:54.435Z,3.80
2023-05-05T10:03:22.132Z,3.78
2023-05-05T10:05:51.970Z,3.63
2023-05-05T10:08:27.772Z,4.18
2023-05-05T10:11:05.025Z,3.90
2023-05-05T10:13:36.732Z,4.10
2023-05-05T10:16:04.531Z,4.25
2023-05-05T10:18:32.220Z,4.10
2023-05-05T10:21:03.398Z,3.53
2023-05-05T10:23:39.332Z,3.58
2023-05-05T10:26:07.432Z,4.03
2023-05-05T10:28:44.149Z,4.15
2023-05-05T10:31:25.181Z,3.90
2023-05-05T10:33:58.148Z,4.00
2023-05-05T10:36:25.669Z,4.00
2023-05-05T10:38:56.272Z,4.32
2023-05-05T10:41:24.272Z,3.50
2023-05-05T10:43:52.943Z,4.07
2023-05-05T10:46:20.433Z,3.78
2023-05-05T10:49:11.775Z,3.95
2023-05-05T10:51:44.250Z,4.05
2023-05-05T10:54:24.917Z,4.18
2023-05-05T10:56:52.283Z,4.00
2023-05-05T10:59:38.368Z,3.97
2023-05-05T11:02:28.513Z,4.18
2023-05-05T11:05:13.279Z,3.58
2023-05-05T11:07:41.836Z,3.85
2023-05-05T11:10:10.695Z,3.92
2023-05-05T11:13:00.301Z,3.63
2023-05-05T11:15:27.843Z,4.20
2023-05-05T11:17:56.213Z,4.13
2023-05-05T11:20:43.408Z,4.10
2023-05-05T11:23:10.741Z,3.85
2023-05-05T11:25:41.136Z,4.00
2023-05-05T11:28:21.232Z,4.50
2023-05-05T11:30:58.734Z,4.05
2023-05-05T11:33:32.799Z,4.05
2023-05-05T11:36:02.699Z,3.92
2023-05-05T11:39:05.575Z,4.43
2023-05-05T11:41:33.019Z,3.75
2023-05-05T11:44:14.068Z,4.10
2023-05-05T11:46:51.193Z,3.65
2023-05-05T11:49:31.710Z,4.40
2023-05-05T11:51:59.896Z,4.90
2023-05-05T11:54:27.507Z,5.28
2023-05-05T11:56:55.883Z,4.95
2023-05-05T11:59:23.304Z,4.63
2023-05-05T12:01:50.797Z,5.32
2023-05-05T12:04:18.395Z,4.10
2023-05-05T12:06:46.217Z,4.20
2023-05-05T12:09:20.891Z,4.35
2023-05-05T12:11:52.491Z,4.07
2023-05-05T12:14:19.969Z,4.35
2023-05-05T12:17:07.754Z,4.18
2023-05-05T12:19:35.588Z,4.20
2023-05-05T12:22:03.902Z,4.53
2023-05-05T12:24:31.337Z,4.40
2023-05-05T12:27:11.433Z,5.45
2023-05-05T12:29:39.272Z,3.97
2023-05-05T12:32:06.723Z,4.22
2023-05-05T12:34:34.287Z,3.70
2023-05-05T12:37:01.875Z,3.80
2023-05-05T12:39:36.594Z,5.75
2023-05-05T12:42:04.556Z,4.10
2023-05-05T12:44:36.370Z,3.50
2023-05-05T12:47:04.211Z,3.80
2023-05-05T12:49:34.134Z,3.42
2023-05-05T12:52:01.592Z,3.47
2023-05-05T12:54:31.573Z,3.20
2023-05-05T12:56:59.504Z,3.58
2023-05-05T12:59:27.502Z,3.38
2023-05-05T13:01:56.241Z,3.90
2023-05-05T13:04:24.784Z,4.00
2023-05-05T13:07:12.208Z,3.65
2023-05-05T13:09:39.781Z,3.92
2023-05-05T13:12:08.788Z,3.70
2023-05-05T13:14:36.536Z,3.20
2023-05-05T13:17:04.005Z,3.55
2023-05-05T13:19:31.631Z,3.47
2023-05-05T13:21:59.115Z,3.63
2023-05-05T13:24:42.145Z,3.88
2023-05-05T13:27:13.879Z,3.70
2023-05-05T13:29:41.748Z,4.05
2023-05-05T13:32:09.452Z,4.22
2023-05-05T13:34:39.138Z,4.50
2023-05-05T13:37:06.863Z,3.80
2023-05-05T13:39:34.213Z,3.72
2023-05-05T13:42:01.556Z,3.90
2023-05-05T13:44:28.979Z,4.03
2023-05-05T13:46:56.367Z,3.95
2023-05-05T13:49:23.842Z,4.63
2023-05-05T13:51:51.211Z,4.03
2023-05-05T13:54:18.668Z,4.20
2023-05-05T13:56:46.234Z,4.53
2023-05-05T13:59:13.689Z,4.15
2023-05-05T14:01:41.134Z,4.43
2023-05-05T14:04:08.744Z,4.00
2023-05-05T14:06:36.258Z,4.00
2023-05-05T14:09:05.978Z,4.15
2023-05-05T14:11:33.671Z,3.88
2023-05-05T14:14:01.473Z,4.63
2023-05-05T14:16:28.885Z,4.20
2023-05-05T14:18:56.397Z,3.70
2023-05-05T14:21:23.732Z,3.53
2023-05-05T14:23:51.060Z,3.88
2023-05-05T14:26:18.417Z,3.88
2023-05-05T14:28:48.989Z,3.88
2023-05-05T14:31:17.731Z,3.55
2023-05-05T14:33:45.128Z,4.57
2023-05-05T14:36:14.221Z,4.57
2023-05-05T14:38:42.909Z,4.38
2023-05-05T14:41:11.030Z,4.22
2023-05-05T14:43:38.368Z,4.10
2023-05-05T14:46:07.330Z,5.18
2023-05-05T14:48:34.898Z,5.72
2023-05-05T14:51:02.296Z,5.50
2023-05-05T14:53:29.690Z,5.45
2023-05-05T14:55:57.534Z,5.82
2023-05-05T14:58:24.919Z,5.28
2023-05-05T15:00:54.960Z,5.18
2023-05-05T15:03:22.457Z,4.07
2023-05-05T15:05:49.895Z,4.82
2023-05-05T15:08:19.194Z,5.03
2023-05-05T15:10:46.595Z,6.05
2023-05-05T15:13:14.136Z,5.28
2023-05-05T15:15:41.624Z,6.00
2023-05-05T15:18:08.998Z,5.95
2023-05-05T15:20:36.831Z,6.15
2023-05-05T15:23:04.244Z,6.88
2023-05-05T15:25:31.707Z,6.95
2023-05-05T15:28:00.856Z,6.97
2023-05-05T15:30:28.423Z,5.80
2023-05-05T15:32:55.912Z,6.90
2023-05-05T15:35:25.539Z,6.45
2023-05-05T15:37:53.439Z,6.10
2023-05-05T15:40:20.937Z,6.40
2023-05-05T15:42:49.818Z,5.88
2023-05-05T15:45:17.459Z,6.28
2023-05-05T15:47:44.908Z,6.07
2023-05-05T15:50:12.463Z,6.45
2023-05-05T15:52:39.860Z,6.50
2023-05-05T15:55:08.127Z,6.00
2023-05-05T15:57:35.677Z,6.80
2023-05-05T16:00:03.251Z,5.63
2023-05-05T16:02:34.713Z,6.65
2023-05-05T16:05:02.428Z,5.72
2023-05-05T16:07:29.781Z,6.28
2023-05-05T16:09:57.437Z,6.47
2023-05-05T16:12:24.830Z,6.60
2023-05-05T16:14:53.213Z,5.40
2023-05-05T16:17:22.266Z,6.88
2023-05-05T16:19:50.169Z,6.85
2023-05-05T16:22:17.536Z,6.38
2023-05-05T16:24:44.841Z,6.78
2023-05-05T16:27:12.191Z,7.57
2023-05-05T16:29:39.533Z,5.93
2023-05-05T16:32:07.044Z,6.53
2023-05-05T16:34:34.348Z,7.57
2023-05-05T16:37:01.957Z,7.63
2023-05-05T16:39:29.267Z,6.95
2023-05-05T16:41:56.630Z,7.50
2023-05-05T16:44:23.934Z,7.45
2023-05-05T16:46:51.298Z,7.00
2023-05-05T16:49:18.630Z,6.90
2023-05-05T16:51:45.965Z,6.60
2023-05-05T16:54:13.272Z,7.82
2023-05-05T16:56:40.862Z,6.80
2023-05-05T16:59:08.250Z,7.72
2023-05-05T17:01:35.634Z,7.18
2023-05-05T17:04:03.059Z,7.32
2023-05-05T17:06:31.999Z,5.72
2023-05-05T17:09:00.166Z,6.60
2023-05-05T17:11:27.567Z,7.53
2023-05-05T17:13:54.877Z,7.32
2023-05-05T17:16:22.270Z,6.40
2023-05-05T17:18:49.715Z,6.90
2023-05-05T17:21:17.043Z,7.43
2023-05-05T17:23:44.322Z,6.88
2023-05-05T17:26:11.617Z,7.20
2023-05-05T17:28:38.959Z,7.22
2023-05-05T17:31:06.773Z,7.60
2023-05-05T17:33:34.100Z,5.90
2023-05-05T17:36:01.393Z,5.90
2023-05-05T17:38:28.774Z,6.90
2023-05-05T17:40:56.072Z,6.75
2023-05-05T17:43:23.852Z,6.50
2023-05-05T17:45:51.248Z,5.97
2023-05-05T17:48:18.597Z,6.03
2023-05-05T17:50:47.153Z,5.80
2023-05-05T17:53:14.512Z,6.55
2023-05-05T17:55:45.776Z,5.90
2023-05-05T17:58:13.161Z,6.30
2023-05-05T18:00:40.726Z,5.70
2023-05-05T18:03:08.205Z,6.57
2023-05-05T18:05:35.664Z,7.30
2023-05-05T18:08:03.203Z,5.45
2023-05-05T18:10:30.639Z,6.72
2023-05-05T18:12:58.019Z,6.20
2023-05-05T18:15:26.234Z,5.68
2023-05-05T18:17:53.913Z,5.80
2023-05-05T18:20:21.290Z,6.25
2023-05-05T18:22:48.752Z,5.80
2023-05-05T18:25:16.128Z,6.43
2023-05-05T18:27:44.444Z,7.00
2023-05-05T18:30:12.098Z,6.75
2023-05-05T18:32:39.428Z,6.80
2023-05-05T18:35:07.734Z,6.63
2023-05-05T18:37:35.347Z,5.90
2023-05-05T18:40:03.238Z,5.90
2023-05-05T18:42:30.541Z,6.78
2023-05-05T18:44:57.873Z,6.75
2023-05-05T18:47:26.221Z,7.60
2023-05-05T18:49:53.595Z,7.15
2023-05-05T18:52:20.901Z,8.68
2023-05-05T18:54:48.266Z,7.60
2023-05-05T18:57:15.637Z,7.18
2023-05-05T18:59:42.972Z,3.67
2023-05-05T19:02:10.359Z,2.65
2023-05-05T19:04:38.128Z,1.80
2023-05-05T19:07:05.606Z,5.78
2023-05-05T19:09:33.016Z,3.05
2023-05-05T19:12:00.421Z,4.18
2023-05-05T19:14:27.771Z,2.70
2023-05-05T19:16:59.184Z,2.13
2023-05-05T19:19:26.678Z,2.80
2023-05-05T19:21:54.221Z,3.08
2023-05-05T19:24:21.548Z,2.90
2023-05-05T19:26:48.890Z,3.33
2023-05-05T19:29:16.998Z,3.55
2023-05-05T19:31:44.427Z,2.80
2023-05-05T19:34:11.771Z,2.88
2023-05-05T19:36:39.076Z,3.60
2023-05-05T19:39:06.375Z,3.35
2023-05-05T19:41:35.302Z,3.67
2023-05-05T19:44:02.998Z,4.10
2023-05-05T19:46:30.505Z,4.07
2023-05-05T19:48:57.856Z,3.90
2023-05-05T19:51:25.302Z,4.00
2023-05-05T19:53:52.621Z,4.03
2023-05-05T19:56:19.921Z,3.30
2023-05-05T19:59:00.734Z,3.13
2023-05-05T20:01:29.118Z,2.90
2023-05-05T20:03:56.822Z,2.78
2023-05-05T20:06:24.381Z,2.90
2023-05-05T20:08:52.281Z,2.80
2023-05-05T20:11:21.148Z,2.90
2023-05-05T20:13:49.487Z,3.08
2023-05-05T20:16:16.893Z,2.78
2023-05-05T20:18:44.382Z,2.85
2023-05-05T20:21:11.750Z,2.78
2023-05-05T20:23:39.223Z,2.88
2023-05-05T20:26:06.728Z,3.28
2023-05-05T20:28:34.198Z,3.05
2023-05-05T20:31:01.615Z,2.63
2023-05-05T20:33:29.004Z,2.60
2023-05-05T20:35:56.435Z,2.60
2023-05-05T20:38:23.798Z,2.63
2023-05-05T20:40:52.148Z,2.60
2023-05-05T20:43:19.613Z,2.20
2023-05-05T20:45:47.090Z,2.10
2023-05-05T20:48:14.401Z,2.67
2023-05-05T20:50:41.935Z,2.15
2023-05-05T20:53:09.813Z,2.70
2023-05-05T20:55:37.128Z,2.10
2023-05-05T20:58:04.875Z,2.13
2023-05-05T21:00:32.211Z,2.60
2023-05-05T21:02:59.657Z,2.28
2023-05-05T21:05:27.010Z,2.72
2023-05-05T21:07:54.578Z,2.70
2023-05-05T21:10:22.028Z,2.88
2023-05-05T21:12:50.528Z,2.60
2023-05-05T21:15:17.901Z,2.30
2023-05-05T21:17:45.339Z,2.78
2023-05-05T21:20:13.361Z,2.72
2023-05-05T21:22:40.873Z,2.42
2023-05-05T21:25:18.842Z,2.72
2023-05-05T21:27:47.154Z,2.67
2023-05-05T21:30:15.009Z,4.30
2023-05-05T21:32:42.532Z,4.15
2023-05-05T21:35:10.418Z,3.20
2023-05-05T21:37:38.872Z,3.10
2023-05-05T21:40:13.917Z,3.45
2023-05-05T21:42:42.120Z,3.40
2023-05-05T21:45:10.994Z,3.40
2023-05-05T21:47:38.336Z,3.38
2023-05-05T21:50:06.222Z,3.45
2023-05-05T21:52:33.684Z,2.95
2023-05-05T21:55:01.015Z,3.40
2023-05-05T21:57:28.311Z,3.13
2023-05-05T21:59:55.763Z,2.90
2023-05-05T22:02:23.286Z,3.20
2023-05-05T22:04:51.473Z,2.50
2023-05-05T22:07:18.923Z,2.70
2023-05-05T22:09:46.274Z,2.63
2023-05-05T22:12:13.652Z,2.63
2023-05-05T22:14:40.989Z,2.75
2023-05-05T22:17:08.376Z,3.22
2023-05-05T22:19:36.048Z,3.00
2023-05-05T22:22:03.444Z,3.08
2023-05-05T22:24:30.843Z,2.90
2023-05-05T22:26:58.348Z,2.80
2023-05-05T22:29:25.681Z,3.20
2023-05-05T22:31:53.261Z,2.80
2023-05-05T22:34:21.983Z,3.20
2023-05-05T22:36:49.636Z,3.50
2023-05-05T22:39:18.548Z,3.55
2023-05-05T22:41:46.346Z,3.28
2023-05-05T22:44:13.767Z,3.47
2023-05-05T22:46:41.252Z,3.65
2023-05-05T22:49:08.825Z,3.50
2023-05-05T22:51:36.199Z,3.22
2023-05-05T22:54:03.692Z,3.33
2023-05-05T22:56:31.024Z,3.72
2023-05-05T22:58:58.451Z,3.30
2023-05-05T23:01:26.089Z,3.13
2023-05-05T23:03:53.493Z,3.30
2023-05-05T23:06:20.884Z,3.33
2023-05-05T23:08:49.183Z,3.55
2023-05-05T23:11:16.555Z,3.10
2023-05-05T23:13:43.846Z,3.88
2023-05-05T23:16:11.301Z,3.75
2023-05-05T23:18:38.851Z,4.82
2023-05-05T23:21:06.288Z,4.03
2023-05-05T23:23:33.617Z,3.78
2023-05-05T23:26:00.953Z,4.25
2023-05-05T23:28:28.231Z,4.32
2023-05-05T23:30:55.744Z,4.03
2023-05-05T23:33:23.216Z,4.65
2023-05-05T23:35:50.548Z,4.53
2023-05-05T23:38:17.878Z,4.05
2023-05-05T23:40:45.209Z,4.45
2023-05-05T23:43:12.813Z,4.57
2023-05-05T23:45:40.384Z,4.93
2023-05-05T23:48:07.802Z,4.90
2023-05-05T23:50:35.205Z,4.70
2023-05-05T23:53:02.548Z,4.97
2023-05-05T23:55:30.008Z,4.70
2023-05-05T23:57:57.340Z,5.05
